createdAt,value
2023-04-21T00:01:39.593Z,4.20
2023-04-21T00:05:58.968Z,4.20
2023-04-21T00:10:16.319Z,4.10
2023-04-21T00:14:33.605Z,4.10
2023-04-21T00:18:50.797Z,4.10
2023-04-21T00:23:08.181Z,4.10
2023-04-21T00:27:25.691Z,4.00
2023-04-21T00:31:43.088Z,3.90
2023-04-21T00:36:00.393Z,3.90
2023-04-21T00:40:17.646Z,3.90
2023-04-21T00:44:34.815Z,3.90
2023-04-21T00:48:52.410Z,4.00
2023-04-21T00:53:10.980Z,4.10
2023-04-21T00:57:29.055Z,4.20
2023-04-21T01:01:46.440Z,4.30
2023-04-21T01:06:03.974Z,4.50
2023-04-21T01:10:21.525Z,4.60
2023-04-21T01:14:40.331Z,4.80
2023-04-21T01:18:57.893Z,4.80
2023-04-21T01:23:15.297Z,4.80
2023-04-21T01:27:32.500Z,4.70
2023-04-21T01:31:50.196Z,4.60
2023-04-21T01:36:08.566Z,4.50
2023-04-21T01:40:25.968Z,4.40
2023-04-21T01:44:43.195Z,4.50
2023-04-21T01:49:00.635Z,4.40
2023-04-21T01:53:18.030Z,4.30
2023-04-21T01:57:36.302Z,4.20
2023-04-21T02:01:53.802Z,4.20
2023-04-21T02:06:11.203Z,4.20
2023-04-21T02:10:28.460Z,4.10
2023-04-21T02:14:48.195Z,4.00
2023-04-21T02:19:06.113Z,4.00
2023-04-21T02:23:23.297Z,4.00
2023-04-21T02:27:40.550Z,3.90
2023-04-21T02:32:05.262Z,3.90
2023-04-21T02:36:32.155Z,4.00
2023-04-21T02:40:51.012Z,3.90
2023-04-21T02:45:09.288Z,3.90
2023-04-21T02:49:26.548Z,3.90
2023-04-21T02:53:43.962Z,3.80
2023-04-21T02:58:01.121Z,3.80
2023-04-21T03:02:18.394Z,3.90
2023-04-21T03:06:35.747Z,3.80
2023-04-21T03:10:53.389Z,3.80
2023-04-21T03:15:11.739Z,3.90
2023-04-21T03:19:29.853Z,3.90
2023-04-21T03:23:47.297Z,4.00
2023-04-21T03:28:04.712Z,4.00
2023-04-21T03:32:22.204Z,4.00
2023-04-21T03:36:39.551Z,4.00
2023-04-21T03:40:56.892Z,4.00
2023-04-21T03:45:14.183Z,4.10
2023-04-21T03:49:33.735Z,4.10
2023-04-21T03:53:51.107Z,4.20
2023-04-21T03:58:08.396Z,4.10
2023-04-21T04:02:25.809Z,4.00
2023-04-21T04:06:43.126Z,3.90
2023-04-21T04:11:00.786Z,3.90
2023-04-21T04:15:18.164Z,3.90
2023-04-21T04:19:35.487Z,3.90
2023-04-21T04:23:53.349Z,3.70
2023-04-21T04:28:12.738Z,3.80
2023-04-21T04:32:29.949Z,3.80
2023-04-21T04:36:48.208Z,3.90
2023-04-21T04:41:06.442Z,3.90
2023-04-21T04:45:23.816Z,4.00
2023-04-21T04:49:41.183Z,4.00
2023-04-21T04:53:58.590Z,4.10
2023-04-21T04:58:17.932Z,4.10
2023-04-21T05:02:35.715Z,4.10
2023-04-21T05:06:53.473Z,4.20
2023-04-21T05:11:11.279Z,4.30
2023-04-21T05:15:28.536Z,4.40
2023-04-21T05:19:46.075Z,4.50
2023-04-21T05:24:03.700Z,4.50
2023-04-21T05:28:21.058Z,4.60
2023-04-21T05:32:38.487Z,4.80
2023-04-21T05:36:56.177Z,4.90
2023-04-21T05:41:13.998Z,5.10
2023-04-21T05:45:31.292Z,5.20
2023-04-21T05:49:53.942Z,5.40
2023-04-21T05:54:11.397Z,5.50
2023-04-21T05:58:30.084Z,5.70
2023-04-21T06:02:47.331Z,6.20
2023-04-21T06:07:07.044Z,6.60
2023-04-21T06:11:24.586Z,7.00
2023-04-21T06:15:41.928Z,7.10
2023-04-21T06:19:59.180Z,7.50
2023-04-21T06:24:17.146Z,7.80
2023-04-21T06:28:36.304Z,8.00
2023-04-21T06:32:53.548Z,8.20
2023-04-21T06:37:11.129Z,8.40
2023-04-21T06:41:28.704Z,8.70
2023-04-21T06:45:46.657Z,9.40
2023-04-21T06:50:04.809Z,10.10
2023-04-21T06:54:22.109Z,10.50
2023-04-21T06:58:39.392Z,10.60
2023-04-21T07:02:57.251Z,10.90
2023-04-21T07:07:15.098Z,11.40
2023-04-21T07:11:32.338Z,12.20
2023-04-21T07:15:50.020Z,12.30
2023-04-21T07:20:08.324Z,12.50
2023-04-21T07:24:25.707Z,13.00
2023-04-21T07:28:43.006Z,13.20
2023-04-21T07:33:01.196Z,13.80
2023-04-21T07:37:18.673Z,14.00
2023-04-21T07:41:36.319Z,14.30
2023-04-21T07:45:54.447Z,14.60
2023-04-21T07:50:11.789Z,14.90
2023-04-21T07:54:31.117Z,15.00
2023-04-21T07:58:49.056Z,15.20
2023-04-21T08:03:06.499Z,15.50
2023-04-21T08:07:23.989Z,15.80
2023-04-21T08:11:41.249Z,16.20
2023-04-21T08:15:58.740Z,16.50
2023-04-21T08:20:16.088Z,16.70
2023-04-21T08:24:33.403Z,17.20
2023-04-21T08:28:52.014Z,17.30
2023-04-21T08:33:13.820Z,17.50
2023-04-21T08:37:31.438Z,17.70
2023-04-21T08:41:51.331Z,17.80
2023-04-21T08:46:09.943Z,18.10
2023-04-21T08:50:29.697Z,17.80
2023-04-21T08:54:47.777Z,17.90
2023-04-21T08:59:05.228Z,18.30
2023-04-21T09:03:27.151Z,19.20
2023-04-21T09:07:44.480Z,20.00
2023-04-21T09:12:02.102Z,19.60
2023-04-21T09:16:21.610Z,19.40
2023-04-21T09:20:39.758Z,20.00
2023-04-21T09:25:00.505Z,20.00
2023-04-21T09:29:18.591Z,19.10
2023-04-21T09:33:46.021Z,18.90
2023-04-21T09:38:14.026Z,18.20
2023-04-21T09:42:33.333Z,19.30
2023-04-21T09:46:54.398Z,19.10
2023-04-21T09:51:32.369Z,20.60
2023-04-21T09:55:54.227Z,19.70
2023-04-21T10:00:13.801Z,20.40
2023-04-21T10:04:33.701Z,21.60
2023-04-21T10:08:51.676Z,21.50
2023-04-21T10:13:15.948Z,21.00
2023-04-21T10:17:37.041Z,20.00
2023-04-21T10:22:00.179Z,20.30
2023-04-21T10:26:23.212Z,19.70
2023-04-21T10:30:40.541Z,19.40
2023-04-21T10:34:59.000Z,20.00
2023-04-21T10:39:36.287Z,19.50
2023-04-21T10:43:53.946Z,20.70
2023-04-21T10:48:14.451Z,20.70
2023-04-21T10:52:33.666Z,20.80
2023-04-21T10:56:53.032Z,20.30
2023-04-21T11:01:12.598Z,20.70
2023-04-21T11:05:40.674Z,20.50
2023-04-21T11:10:04.081Z,22.20
2023-04-21T11:14:21.871Z,22.30
2023-04-21T11:18:39.935Z,21.90
2023-04-21T11:22:57.361Z,21.00
2023-04-21T11:27:15.487Z,21.20
2023-04-21T11:31:33.430Z,20.60
2023-04-21T11:35:52.521Z,20.80
2023-04-21T11:40:10.572Z,20.50
2023-04-21T11:44:42.354Z,20.70
2023-04-21T11:49:13.015Z,20.50
2023-04-21T11:53:30.481Z,20.40
2023-04-21T11:57:49.870Z,20.20
2023-04-21T12:02:21.647Z,20.40
2023-04-21T12:06:39.006Z,22.20
2023-04-21T12:10:56.560Z,21.80
2023-04-21T12:15:19.936Z,21.10
2023-04-21T12:19:41.696Z,21.20
2023-04-21T12:23:59.075Z,20.00
2023-04-21T12:28:17.893Z,20.90
2023-04-21T12:32:35.137Z,21.30
2023-04-21T12:36:52.692Z,20.50
2023-04-21T12:41:10.381Z,19.80
2023-04-21T12:45:28.081Z,21.20
2023-04-21T12:49:45.398Z,20.50
2023-04-21T12:54:02.655Z,21.20
2023-04-21T12:58:20.092Z,20.60
2023-04-21T13:02:38.207Z,21.60
2023-04-21T13:06:56.006Z,22.40
2023-04-21T13:11:14.061Z,23.80
2023-04-21T13:15:31.553Z,21.60
2023-04-21T13:19:48.857Z,22.00
2023-04-21T13:24:06.244Z,22.60
2023-04-21T13:28:23.652Z,21.10
2023-04-21T13:32:42.274Z,21.90
2023-04-21T13:37:03.162Z,21.40
2023-04-21T13:41:20.811Z,22.10
2023-04-21T13:45:38.788Z,21.40
2023-04-21T13:49:56.410Z,22.20
2023-04-21T13:54:13.614Z,22.50
2023-04-21T13:58:30.905Z,23.10
2023-04-21T14:02:48.319Z,23.40
2023-04-21T14:07:06.570Z,21.90
2023-04-21T14:11:23.824Z,23.20
2023-04-21T14:15:41.157Z,23.00
2023-04-21T14:19:58.875Z,23.20
2023-04-21T14:24:16.358Z,23.50
2023-04-21T14:28:33.641Z,23.50
2023-04-21T14:32:51.146Z,22.30
2023-04-21T14:37:08.713Z,21.30
2023-04-21T14:41:26.172Z,21.80
2023-04-21T14:45:44.001Z,21.80
2023-04-21T14:50:01.483Z,22.40
2023-04-21T14:54:18.836Z,21.60
2023-04-21T14:58:36.025Z,20.50
2023-04-21T15:02:53.663Z,21.90
2023-04-21T15:07:11.267Z,22.30
2023-04-21T15:11:28.516Z,22.20
2023-04-21T15:15:45.988Z,22.00
2023-04-21T15:20:05.130Z,22.10
2023-04-21T15:24:22.469Z,22.40
2023-04-21T15:28:39.922Z,21.90
2023-04-21T15:32:57.408Z,21.10
2023-04-21T15:37:17.363Z,20.90
2023-04-21T15:41:35.505Z,20.50
2023-04-21T15:45:52.854Z,20.30
2023-04-21T15:50:10.842Z,20.20
2023-04-21T15:54:28.275Z,20.20
2023-04-21T15:58:46.070Z,20.20
2023-04-21T16:03:03.419Z,19.70
2023-04-21T16:07:20.853Z,19.70
2023-04-21T16:11:38.171Z,19.60
2023-04-21T16:15:55.926Z,19.50
2023-04-21T16:20:13.603Z,19.40
2023-04-21T16:24:30.955Z,19.30
2023-04-21T16:28:48.371Z,19.20
2023-04-21T16:33:05.921Z,19.10
2023-04-21T16:37:23.899Z,19.00
2023-04-21T16:41:41.231Z,19.00
2023-04-21T16:45:58.474Z,19.00
2023-04-21T16:50:16.090Z,18.90
2023-04-21T16:54:33.370Z,18.80
2023-04-21T16:58:52.905Z,18.70
2023-04-21T17:03:10.302Z,18.50
2023-04-21T17:07:28.279Z,18.50
2023-04-21T17:11:46.150Z,18.30
2023-04-21T17:16:03.560Z,18.20
2023-04-21T17:20:20.872Z,18.10
2023-04-21T17:24:51.822Z,17.90
2023-04-21T17:29:11.162Z,17.80
2023-04-21T17:33:28.409Z,17.60
2023-04-21T17:37:46.045Z,17.40
2023-04-21T17:42:03.413Z,17.30
2023-04-21T17:46:24.788Z,17.20
2023-04-21T17:50:42.570Z,16.90
2023-04-21T17:54:59.761Z,16.80
2023-04-21T17:59:17.437Z,16.50
2023-04-21T18:03:36.203Z,16.30
2023-04-21T18:07:53.903Z,15.90
2023-04-21T18:12:11.206Z,15.60
2023-04-21T18:16:28.638Z,15.20
2023-04-21T18:20:46.215Z,15.00
2023-04-21T18:25:03.547Z,14.70
2023-04-21T18:29:22.507Z,14.40
2023-04-21T18:33:39.947Z,14.10
2023-04-21T18:37:57.318Z,13.80
2023-04-21T18:42:14.981Z,13.50
2023-04-21T18:46:35.689Z,13.10
2023-04-21T18:50:52.990Z,12.70
2023-04-21T18:55:10.386Z,12.30
2023-04-21T18:59:27.731Z,12.10
2023-04-21T19:03:45.741Z,11.90
2023-04-21T19:08:03.364Z,11.70
2023-04-21T19:12:21.468Z,11.40
2023-04-21T19:16:38.747Z,11.20
2023-04-21T19:20:56.166Z,11.00
2023-04-21T19:25:13.689Z,10.80
2023-04-21T19:29:31.558Z,10.60
2023-04-21T19:33:49.592Z,10.50
2023-04-21T19:38:06.994Z,10.40
2023-04-21T19:42:24.240Z,10.30
2023-04-21T19:46:43.339Z,10.40
2023-04-21T19:51:01.066Z,10.40
2023-04-21T19:55:18.667Z,10.40
2023-04-21T19:59:36.382Z,10.40
2023-04-21T20:03:54.132Z,10.40
2023-04-21T20:08:16.558Z,10.30
2023-04-21T20:12:34.674Z,10.20
2023-04-21T20:16:51.966Z,10.10
2023-04-21T20:21:11.963Z,10.00
2023-04-21T20:25:29.801Z,9.90
2023-04-21T20:29:48.265Z,9.90
2023-04-21T20:34:05.594Z,10.00
2023-04-21T20:38:26.723Z,9.90
2023-04-21T20:42:45.040Z,9.80
2023-04-21T20:47:02.559Z,9.70
2023-04-21T20:51:19.987Z,9.50
2023-04-21T20:55:37.566Z,9.60
2023-04-21T20:59:55.020Z,9.40
2023-04-21T21:04:12.717Z,9.40
2023-04-21T21:08:30.144Z,9.40
2023-04-21T21:12:47.401Z,9.20
2023-04-21T21:17:04.766Z,9.10
2023-04-21T21:21:22.243Z,9.10
2023-04-21T21:25:41.962Z,9.10
2023-04-21T21:29:59.500Z,9.00
2023-04-21T21:34:16.702Z,9.00
2023-04-21T21:38:34.230Z,8.90
2023-04-21T21:42:51.575Z,8.80
2023-04-21T21:47:08.925Z,8.70
2023-04-21T21:51:28.944Z,8.60
2023-04-21T21:55:46.488Z,8.60
2023-04-21T22:00:08.169Z,8.50
2023-04-21T22:04:25.929Z,8.40
2023-04-21T22:08:43.153Z,8.30
2023-04-21T22:13:00.849Z,8.20
2023-04-21T22:17:19.281Z,8.10
2023-04-21T22:21:37.112Z,7.90
2023-04-21T22:25:54.641Z,7.80
2023-04-21T22:30:12.184Z,7.70
2023-04-21T22:34:29.492Z,7.60
2023-04-21T22:38:46.734Z,7.60
2023-04-21T22:43:04.101Z,7.70
2023-04-21T22:47:21.655Z,7.70
2023-04-21T22:51:39.196Z,7.60
2023-04-21T22:55:56.684Z,7.40
2023-04-21T23:00:16.870Z,7.20
2023-04-21T23:04:35.401Z,7.10
2023-04-21T23:08:52.969Z,7.00
2023-04-21T23:13:10.255Z,6.90
2023-04-21T23:17:27.621Z,6.80
2023-04-21T23:21:46.566Z,6.70
2023-04-21T23:26:03.780Z,6.60
2023-04-21T23:30:21.038Z,6.60
2023-04-21T23:34:38.304Z,6.50
2023-04-21T23:38:55.930Z,6.60
2023-04-21T23:43:13.168Z,6.50
2023-04-21T23:47:30.799Z,6.50
2023-04-21T23:51:49.735Z,6.40
2023-04-21T23:56:07.173Z,6.40
